sensor_id;sensor_type;location;lat;lon;timestamp;P1;durP1;ratioP1;P2;durP2;ratioP2
50605;SDS011;36557;53.572;10.170;2023-04-06T00:02:06;3.25;;;2.13;;
50605;SDS011;36557;53.572;10.170;2023-04-06T00:04:32;4.28;;;2.13;;
50605;SDS011;36557;53.572;10.170;2023-04-06T00:06:59;5.72;;;2.70;;
50605;SDS011;36557;53.572;10.170;2023-04-06T00:09:25;5.13;;;2.70;;
50605;SDS011;36557;53.572;10.170;2023-04-06T00:11:51;6.47;;;2.78;;
50605;SDS011;36557;53.572;10.170;2023-04-06T00:14:17;3.58;;;2.40;;
50605;SDS011;36557;53.572;10.170;2023-04-06T00:16:43;5.15;;;2.67;;
50605;SDS011;36557;53.572;10.170;2023-04-06T00:19:09;6.03;;;2.50;;
50605;SDS011;36557;53.572;10.170;2023-04-06T00:21:35;6.43;;;2.53;;
50605;SDS011;36557;53.572;10.170;2023-04-06T00:24:01;4.85;;;2.70;;
50605;SDS011;36557;53.572;10.170;2023-04-06T00:26:28;4.95;;;2.70;;
50605;SDS011;36557;53.572;10.170;2023-04-06T00:28:55;4.40;;;2.65;;
50605;SDS011;36557;53.572;10.170;2023-04-06T00:31:21;5.57;;;2.97;;
50605;SDS011;36557;53.572;10.170;2023-04-06T00:33:47;3.42;;;2.17;;
50605;SDS011;36557;53.572;10.170;2023-04-06T00:36:14;4.50;;;2.38;;
50605;SDS011;36557;53.572;10.170;2023-04-06T00:38:40;4.55;;;2.75;;
50605;SDS011;36557;53.572;10.170;2023-04-06T00:41:06;5.00;;;2.50;;
50605;SDS011;36557;53.572;10.170;2023-04-06T00:43:32;6.65;;;3.08;;
50605;SDS011;36557;53.572;10.170;2023-04-06T00:45:58;4.32;;;2.78;;
50605;SDS011;36557;53.572;10.170;2023-04-06T00:48:24;5.80;;;3.17;;
50605;SDS011;36557;53.572;10.170;2023-04-06T00:50:50;6.18;;;2.70;;
50605;SDS011;36557;53.572;10.170;2023-04-06T00:53:16;6.65;;;3.55;;
50605;SDS011;36557;53.572;10.170;2023-04-06T00:55:42;7.35;;;2.95;;
50605;SDS011;36557;53.572;10.170;2023-04-06T00:58:08;6.63;;;2.70;;
50605;SDS011;36557;53.572;10.170;2023-04-06T01:00:34;6.28;;;2.63;;
50605;SDS011;36557;53.572;10.170;2023-04-06T01:03:01;5.88;;;2.78;;
50605;SDS011;36557;53.572;10.170;2023-04-06T01:05:27;5.32;;;3.03;;
50605;SDS011;36557;53.572;10.170;2023-04-06T01:07:53;5.22;;;2.95;;
50605;SDS011;36557;53.572;10.170;2023-04-06T01:10:23;6.20;;;2.88;;
50605;SDS011;36557;53.572;10.170;2023-04-06T01:12:49;6.32;;;2.95;;
50605;SDS011;36557;53.572;10.170;2023-04-06T01:15:15;3.75;;;2.60;;
50605;SDS011;36557;53.572;10.170;2023-04-06T01:17:41;5.38;;;2.70;;
50605;SDS011;36557;53.572;10.170;2023-04-06T01:20:07;5.53;;;2.95;;
50605;SDS011;36557;53.572;10.170;2023-04-06T01:22:34;6.15;;;2.90;;
50605;SDS011;36557;53.572;10.170;2023-04-06T01:25:00;5.70;;;2.85;;
50605;SDS011;36557;53.572;10.170;2023-04-06T01:27:26;5.78;;;2.85;;
50605;SDS011;36557;53.572;10.170;2023-04-06T01:29:53;5.97;;;2.45;;
50605;SDS011;36557;53.572;10.170;2023-04-06T01:32:19;4.63;;;2.63;;
50605;SDS011;36557;53.572;10.170;2023-04-06T01:34:45;5.50;;;2.70;;
50605;SDS011;36557;53.572;10.170;2023-04-06T01:37:12;5.85;;;2.90;;
50605;SDS011;36557;53.572;10.170;2023-04-06T01:39:38;3.63;;;2.80;;
50605;SDS011;36557;53.572;10.170;2023-04-06T01:42:04;5.07;;;2.53;;
50605;SDS011;36557;53.572;10.170;2023-04-06T01:44:31;4.50;;;2.47;;
50605;SDS011;36557;53.572;10.170;2023-04-06T01:46:57;6.15;;;2.90;;
50605;SDS011;36557;53.572;10.170;2023-04-06T01:49:23;4.40;;;2.72;;
50605;SDS011;36557;53.572;10.170;2023-04-06T01:51:49;5.45;;;2.80;;
50605;SDS011;36557;53.572;10.170;2023-04-06T01:54:16;4.15;;;2.55;;
50605;SDS011;36557;53.572;10.170;2023-04-06T01:56:42;5.00;;;2.55;;
50605;SDS011;36557;53.572;10.170;2023-04-06T01:59:08;5.78;;;2.92;;
50605;SDS011;36557;53.572;10.170;2023-04-06T02:01:34;6.53;;;3.00;;
50605;SDS011;36557;53.572;10.170;2023-04-06T02:04:00;4.85;;;2.83;;
50605;SDS011;36557;53.572;10.170;2023-04-06T02:06:26;5.60;;;3.03;;
50605;SDS011;36557;53.572;10.170;2023-04-06T02:08:52;4.97;;;3.33;;
50605;SDS011;36557;53.572;10.170;2023-04-06T02:11:18;6.18;;;2.65;;
50605;SDS011;36557;53.572;10.170;2023-04-06T02:13:45;5.20;;;3.20;;
50605;SDS011;36557;53.572;10.170;2023-04-06T02:16:11;5.57;;;3.10;;
50605;SDS011;36557;53.572;10.170;2023-04-06T02:18:37;5.35;;;3.05;;
50605;SDS011;36557;53.572;10.170;2023-04-06T02:21:03;4.32;;;2.65;;
50605;SDS011;36557;53.572;10.170;2023-04-06T02:23:29;6.20;;;3.17;;
50605;SDS011;36557;53.572;10.170;2023-04-06T02:25:55;5.05;;;3.20;;
50605;SDS011;36557;53.572;10.170;2023-04-06T02:28:21;6.00;;;2.22;;
50605;SDS011;36557;53.572;10.170;2023-04-06T02:30:47;6.45;;;3.17;;
50605;SDS011;36557;53.572;10.170;2023-04-06T02:33:13;5.55;;;3.00;;
50605;SDS011;36557;53.572;10.170;2023-04-06T02:35:39;4.90;;;3.15;;
50605;SDS011;36557;53.572;10.170;2023-04-06T02:38:06;4.78;;;2.60;;
50605;SDS011;36557;53.572;10.170;2023-04-06T02:40:32;6.28;;;3.03;;
50605;SDS011;36557;53.572;10.170;2023-04-06T02:42:58;6.57;;;3.50;;
50605;SDS011;36557;53.572;10.170;2023-04-06T02:45:24;6.43;;;2.97;;
50605;SDS011;36557;53.572;10.170;2023-04-06T02:47:51;5.35;;;2.80;;
50605;SDS011;36557;53.572;10.170;2023-04-06T02:50:17;4.30;;;2.70;;
50605;SDS011;36557;53.572;10.170;2023-04-06T02:52:43;6.22;;;3.20;;
50605;SDS011;36557;53.572;10.170;2023-04-06T02:55:09;6.07;;;3.30;;
50605;SDS011;36557;53.572;10.170;2023-04-06T02:57:35;8.35;;;2.72;;
50605;SDS011;36557;53.572;10.170;2023-04-06T03:00:01;4.95;;;2.83;;
50605;SDS011;36557;53.572;10.170;2023-04-06T03:02:27;7.60;;;3.00;;
50605;SDS011;36557;53.572;10.170;2023-04-06T03:04:53;10.70;;;3.30;;
50605;SDS011;36557;53.572;10.170;2023-04-06T03:07:20;5.22;;;2.85;;
50605;SDS011;36557;53.572;10.170;2023-04-06T03:09:46;4.85;;;3.10;;
50605;SDS011;36557;53.572;10.170;2023-04-06T03:12:12;6.15;;;2.75;;
50605;SDS011;36557;53.572;10.170;2023-04-06T03:14:38;5.60;;;2.75;;
50605;SDS011;36557;53.572;10.170;2023-04-06T03:17:04;5.53;;;2.90;;
50605;SDS011;36557;53.572;10.170;2023-04-06T03:19:30;6.75;;;3.10;;
50605;SDS011;36557;53.572;10.170;2023-04-06T03:21:57;7.32;;;3.13;;
50605;SDS011;36557;53.572;10.170;2023-04-06T03:24:23;7.20;;;3.00;;
50605;SDS011;36557;53.572;10.170;2023-04-06T03:26:49;6.85;;;3.05;;
50605;SDS011;36557;53.572;10.170;2023-04-06T03:29:15;5.22;;;2.65;;
50605;SDS011;36557;53.572;10.170;2023-04-06T03:31:41;5.60;;;3.15;;
50605;SDS011;36557;53.572;10.170;2023-04-06T03:34:07;7.22;;;2.97;;
50605;SDS011;36557;53.572;10.170;2023-04-06T03:36:34;4.68;;;3.17;;
50605;SDS011;36557;53.572;10.170;2023-04-06T03:39:00;5.90;;;3.05;;
50605;SDS011;36557;53.572;10.170;2023-04-06T03:41:26;6.00;;;3.20;;
50605;SDS011;36557;53.572;10.170;2023-04-06T03:43:52;5.53;;;3.30;;
50605;SDS011;36557;53.572;10.170;2023-04-06T03:46:18;6.60;;;3.63;;
50605;SDS011;36557;53.572;10.170;2023-04-06T03:48:45;7.80;;;3.25;;
50605;SDS011;36557;53.572;10.170;2023-04-06T03:51:11;7.50;;;3.30;;
50605;SDS011;36557;53.572;10.170;2023-04-06T03:53:37;5.00;;;2.78;;
50605;SDS011;36557;53.572;10.170;2023-04-06T03:56:03;7.80;;;3.40;;
50605;SDS011;36557;53.572;10.170;2023-04-06T03:58:30;10.05;;;3.40;;
50605;SDS011;36557;53.572;10.170;2023-04-06T04:00:56;7.55;;;3.88;;
50605;SDS011;36557;53.572;10.170;2023-04-06T04:03:22;7.50;;;4.18;;
50605;SDS011;36557;53.572;10.170;2023-04-06T04:05:52;6.78;;;3.50;;
50605;SDS011;36557;53.572;10.170;2023-04-06T04:08:20;6.47;;;3.40;;
50605;SDS011;36557;53.572;10.170;2023-04-06T04:10:46;5.80;;;3.42;;
50605;SDS011;36557;53.572;10.170;2023-04-06T04:13:12;9.45;;;4.82;;
50605;SDS011;36557;53.572;10.170;2023-04-06T04:15:38;14.98;;;11.52;;
50605;SDS011;36557;53.572;10.170;2023-04-06T04:18:04;12.40;;;7.63;;
50605;SDS011;36557;53.572;10.170;2023-04-06T04:20:30;8.82;;;4.72;;
50605;SDS011;36557;53.572;10.170;2023-04-06T04:22:56;7.88;;;4.60;;
50605;SDS011;36557;53.572;10.170;2023-04-06T04:25:23;6.28;;;3.70;;
50605;SDS011;36557;53.572;10.170;2023-04-06T04:27:49;6.90;;;3.53;;
50605;SDS011;36557;53.572;10.170;2023-04-06T04:30:15;6.32;;;3.90;;
50605;SDS011;36557;53.572;10.170;2023-04-06T04:32:41;7.68;;;3.72;;
50605;SDS011;36557;53.572;10.170;2023-04-06T04:35:07;6.10;;;3.60;;
50605;SDS011;36557;53.572;10.170;2023-04-06T04:37:34;7.95;;;4.03;;
50605;SDS011;36557;53.572;10.170;2023-04-06T04:40:00;7.50;;;4.43;;
50605;SDS011;36557;53.572;10.170;2023-04-06T04:42:26;9.45;;;4.40;;
50605;SDS011;36557;53.572;10.170;2023-04-06T04:44:52;9.82;;;4.32;;
50605;SDS011;36557;53.572;10.170;2023-04-06T04:47:18;9.68;;;4.07;;
50605;SDS011;36557;53.572;10.170;2023-04-06T04:49:44;7.45;;;5.18;;
50605;SDS011;36557;53.572;10.170;2023-04-06T04:52:10;9.70;;;4.35;;
50605;SDS011;36557;53.572;10.170;2023-04-06T04:54:36;15.98;;;6.97;;
50605;SDS011;36557;53.572;10.170;2023-04-06T04:57:03;11.80;;;6.70;;
50605;SDS011;36557;53.572;10.170;2023-04-06T04:59:29;14.90;;;4.82;;
50605;SDS011;36557;53.572;10.170;2023-04-06T05:01:55;11.57;;;5.20;;
50605;SDS011;36557;53.572;10.170;2023-04-06T05:04:22;9.23;;;4.68;;
50605;SDS011;36557;53.572;10.170;2023-04-06T05:06:48;8.70;;;5.55;;
50605;SDS011;36557;53.572;10.170;2023-04-06T05:09:15;9.90;;;4.38;;
50605;SDS011;36557;53.572;10.170;2023-04-06T05:11:42;8.38;;;4.55;;
50605;SDS011;36557;53.572;10.170;2023-04-06T05:14:09;9.60;;;5.75;;
50605;SDS011;36557;53.572;10.170;2023-04-06T05:16:35;9.18;;;4.40;;
50605;SDS011;36557;53.572;10.170;2023-04-06T05:19:02;9.20;;;5.55;;
50605;SDS011;36557;53.572;10.170;2023-04-06T05:21:28;10.38;;;5.03;;
50605;SDS011;36557;53.572;10.170;2023-04-06T05:23:54;8.52;;;5.22;;
50605;SDS011;36557;53.572;10.170;2023-04-06T05:26:21;9.98;;;5.40;;
50605;SDS011;36557;53.572;10.170;2023-04-06T05:28:47;12.23;;;5.40;;
50605;SDS011;36557;53.572;10.170;2023-04-06T05:31:13;12.30;;;5.78;;
50605;SDS011;36557;53.572;10.170;2023-04-06T05:33:41;12.38;;;5.70;;
50605;SDS011;36557;53.572;10.170;2023-04-06T05:36:07;8.98;;;5.22;;
50605;SDS011;36557;53.572;10.170;2023-04-06T05:38:33;13.30;;;6.05;;
50605;SDS011;36557;53.572;10.170;2023-04-06T05:40:59;11.10;;;4.72;;
50605;SDS011;36557;53.572;10.170;2023-04-06T05:43:25;12.15;;;5.63;;
50605;SDS011;36557;53.572;10.170;2023-04-06T05:45:51;10.90;;;5.47;;
50605;SDS011;36557;53.572;10.170;2023-04-06T05:48:17;10.52;;;5.50;;
50605;SDS011;36557;53.572;10.170;2023-04-06T05:50:47;8.70;;;4.82;;
50605;SDS011;36557;53.572;10.170;2023-04-06T05:53:13;9.68;;;5.13;;
50605;SDS011;36557;53.572;10.170;2023-04-06T05:55:39;14.95;;;7.70;;
50605;SDS011;36557;53.572;10.170;2023-04-06T05:58:05;34.60;;;13.43;;
50605;SDS011;36557;53.572;10.170;2023-04-06T06:00:31;21.65;;;8.90;;
50605;SDS011;36557;53.572;10.170;2023-04-06T06:02:57;36.40;;;12.90;;
50605;SDS011;36557;53.572;10.170;2023-04-06T06:05:23;18.65;;;9.55;;
50605;SDS011;36557;53.572;10.170;2023-04-06T06:07:50;21.23;;;10.20;;
50605;SDS011;36557;53.572;10.170;2023-04-06T06:10:16;14.80;;;8.20;;
50605;SDS011;36557;53.572;10.170;2023-04-06T06:12:42;14.90;;;8.18;;
50605;SDS011;36557;53.572;10.170;2023-04-06T06:15:08;13.25;;;6.97;;
50605;SDS011;36557;53.572;10.170;2023-04-06T06:17:34;12.23;;;7.63;;
50605;SDS011;36557;53.572;10.170;2023-04-06T06:20:00;15.70;;;7.88;;
50605;SDS011;36557;53.572;10.170;2023-04-06T06:22:26;10.85;;;6.65;;
50605;SDS011;36557;53.572;10.170;2023-04-06T06:24:52;9.73;;;5.95;;
50605;SDS011;36557;53.572;10.170;2023-04-06T06:27:19;12.27;;;6.80;;
50605;SDS011;36557;53.572;10.170;2023-04-06T06:29:45;16.77;;;7.13;;
50605;SDS011;36557;53.572;10.170;2023-04-06T06:32:11;13.15;;;6.68;;
50605;SDS011;36557;53.572;10.170;2023-04-06T06:34:37;9.52;;;5.68;;
50605;SDS011;36557;53.572;10.170;2023-04-06T06:37:03;9.07;;;5.47;;
50605;SDS011;36557;53.572;10.170;2023-04-06T06:39:29;8.75;;;5.53;;
50605;SDS011;36557;53.572;10.170;2023-04-06T06:41:55;9.57;;;5.85;;
50605;SDS011;36557;53.572;10.170;2023-04-06T06:44:22;8.05;;;5.47;;
50605;SDS011;36557;53.572;10.170;2023-04-06T06:46:48;11.55;;;5.55;;
50605;SDS011;36557;53.572;10.170;2023-04-06T06:49:14;13.43;;;6.25;;
50605;SDS011;36557;53.572;10.170;2023-04-06T06:51:40;10.50;;;6.57;;
50605;SDS011;36557;53.572;10.170;2023-04-06T06:54:06;8.80;;;5.45;;
50605;SDS011;36557;53.572;10.170;2023-04-06T06:56:32;9.63;;;5.40;;
50605;SDS011;36557;53.572;10.170;2023-04-06T06:59:00;11.18;;;5.93;;
50605;SDS011;36557;53.572;10.170;2023-04-06T07:01:26;9.25;;;6.60;;
50605;SDS011;36557;53.572;10.170;2023-04-06T07:03:52;9.50;;;5.38;;
50605;SDS011;36557;53.572;10.170;2023-04-06T07:06:19;10.05;;;6.03;;
50605;SDS011;36557;53.572;10.170;2023-04-06T07:08:46;9.32;;;5.18;;
50605;SDS011;36557;53.572;10.170;2023-04-06T07:11:12;10.85;;;4.97;;
50605;SDS011;36557;53.572;10.170;2023-04-06T07:13:38;10.38;;;4.97;;
50605;SDS011;36557;53.572;10.170;2023-04-06T07:16:04;8.52;;;5.20;;
50605;SDS011;36557;53.572;10.170;2023-04-06T07:18:30;9.13;;;4.75;;
50605;SDS011;36557;53.572;10.170;2023-04-06T07:20:56;7.90;;;5.03;;
50605;SDS011;36557;53.572;10.170;2023-04-06T07:23:22;7.22;;;4.55;;
50605;SDS011;36557;53.572;10.170;2023-04-06T07:25:48;10.38;;;5.00;;
50605;SDS011;36557;53.572;10.170;2023-04-06T07:28:17;7.80;;;5.47;;
50605;SDS011;36557;53.572;10.170;2023-04-06T07:30:43;8.65;;;5.53;;
50605;SDS011;36557;53.572;10.170;2023-04-06T07:33:09;10.35;;;6.93;;
50605;SDS011;36557;53.572;10.170;2023-04-06T07:35:35;8.30;;;5.45;;
50605;SDS011;36557;53.572;10.170;2023-04-06T07:38:02;10.00;;;4.25;;
50605;SDS011;36557;53.572;10.170;2023-04-06T07:40:29;10.02;;;7.28;;
50605;SDS011;36557;53.572;10.170;2023-04-06T07:42:56;13.40;;;7.60;;
50605;SDS011;36557;53.572;10.170;2023-04-06T07:45:22;12.02;;;8.38;;
50605;SDS011;36557;53.572;10.170;2023-04-06T07:47:48;7.22;;;4.20;;
50605;SDS011;36557;53.572;10.170;2023-04-06T07:50:15;5.57;;;4.10;;
50605;SDS011;36557;53.572;10.170;2023-04-06T07:52:41;10.07;;;4.18;;
50605;SDS011;36557;53.572;10.170;2023-04-06T07:55:07;8.82;;;3.45;;
50605;SDS011;36557;53.572;10.170;2023-04-06T07:57:33;6.07;;;4.00;;
50605;SDS011;36557;53.572;10.170;2023-04-06T08:00:00;6.57;;;3.20;;
50605;SDS011;36557;53.572;10.170;2023-04-06T08:02:27;6.03;;;3.70;;
50605;SDS011;36557;53.572;10.170;2023-04-06T08:04:53;9.27;;;3.78;;
50605;SDS011;36557;53.572;10.170;2023-04-06T08:07:19;5.35;;;3.35;;
50605;SDS011;36557;53.572;10.170;2023-04-06T08:09:45;7.68;;;3.60;;
50605;SDS011;36557;53.572;10.170;2023-04-06T08:12:11;6.53;;;3.53;;
50605;SDS011;36557;53.572;10.170;2023-04-06T08:14:38;7.85;;;3.78;;
50605;SDS011;36557;53.572;10.170;2023-04-06T08:17:03;5.10;;;3.20;;
50605;SDS011;36557;53.572;10.170;2023-04-06T08:19:29;7.25;;;4.05;;
50605;SDS011;36557;53.572;10.170;2023-04-06T08:21:55;7.07;;;3.38;;
50605;SDS011;36557;53.572;10.170;2023-04-06T08:24:20;6.50;;;3.22;;
50605;SDS011;36557;53.572;10.170;2023-04-06T08:26:46;6.85;;;3.53;;
50605;SDS011;36557;53.572;10.170;2023-04-06T08:29:12;5.65;;;3.63;;
50605;SDS011;36557;53.572;10.170;2023-04-06T08:31:38;6.88;;;3.47;;
50605;SDS011;36557;53.572;10.170;2023-04-06T08:34:03;8.13;;;3.42;;
50605;SDS011;36557;53.572;10.170;2023-04-06T08:36:30;5.80;;;2.95;;
50605;SDS011;36557;53.572;10.170;2023-04-06T08:38:56;7.57;;;3.20;;
50605;SDS011;36557;53.572;10.170;2023-04-06T08:41:22;14.45;;;7.53;;
50605;SDS011;36557;53.572;10.170;2023-04-06T08:44:01;6.15;;;3.47;;
50605;SDS011;36557;53.572;10.170;2023-04-06T08:46:30;5.60;;;3.40;;
50605;SDS011;36557;53.572;10.170;2023-04-06T08:48:59;4.93;;;3.15;;
50605;SDS011;36557;53.572;10.170;2023-04-06T08:51:27;6.57;;;2.90;;
50605;SDS011;36557;53.572;10.170;2023-04-06T08:53:56;5.03;;;2.60;;
50605;SDS011;36557;53.572;10.170;2023-04-06T08:56:23;6.40;;;3.10;;
50605;SDS011;36557;53.572;10.170;2023-04-06T08:58:50;5.75;;;3.25;;
50605;SDS011;36557;53.572;10.170;2023-04-06T09:01:20;4.20;;;2.85;;
50605;SDS011;36557;53.572;10.170;2023-04-06T09:03:46;5.28;;;3.45;;
50605;SDS011;36557;53.572;10.170;2023-04-06T09:06:14;6.70;;;3.13;;
50605;SDS011;36557;53.572;10.170;2023-04-06T09:08:40;4.30;;;2.53;;
50605;SDS011;36557;53.572;10.170;2023-04-06T09:11:07;5.60;;;2.53;;
50605;SDS011;36557;53.572;10.170;2023-04-06T09:16:15;7.00;;;3.08;;
50605;SDS011;36557;53.572;10.170;2023-04-06T09:18:42;5.22;;;2.97;;
50605;SDS011;36557;53.572;10.170;2023-04-06T09:21:08;8.95;;;4.32;;
50605;SDS011;36557;53.572;10.170;2023-04-06T09:23:34;3.80;;;2.75;;
50605;SDS011;36557;53.572;10.170;2023-04-06T09:26:07;9.15;;;3.33;;
50605;SDS011;36557;53.572;10.170;2023-04-06T09:28:44;6.93;;;3.30;;
50605;SDS011;36557;53.572;10.170;2023-04-06T09:31:32;4.90;;;2.60;;
50605;SDS011;36557;53.572;10.170;2023-04-06T09:33:58;5.97;;;2.20;;
50605;SDS011;36557;53.572;10.170;2023-04-06T09:36:32;6.68;;;2.50;;
50605;SDS011;36557;53.572;10.170;2023-04-06T09:38:59;5.53;;;2.75;;
50605;SDS011;36557;53.572;10.170;2023-04-06T09:41:28;4.32;;;2.55;;
50605;SDS011;36557;53.572;10.170;2023-04-06T09:44:01;6.05;;;2.80;;
50605;SDS011;36557;53.572;10.170;2023-04-06T09:46:32;6.38;;;3.28;;
50605;SDS011;36557;53.572;10.170;2023-04-06T09:49:02;7.03;;;3.22;;
50605;SDS011;36557;53.572;10.170;2023-04-06T09:51:51;5.47;;;2.88;;
50605;SDS011;36557;53.572;10.170;2023-04-06T09:54:21;5.07;;;3.15;;
50605;SDS011;36557;53.572;10.170;2023-04-06T09:57:31;4.57;;;2.90;;
50605;SDS011;36557;53.572;10.170;2023-04-06T09:59:56;5.65;;;2.47;;
50605;SDS011;36557;53.572;10.170;2023-04-06T10:05:02;4.07;;;2.90;;
50605;SDS011;36557;53.572;10.170;2023-04-06T10:07:33;4.43;;;2.88;;
50605;SDS011;36557;53.572;10.170;2023-04-06T10:09:58;3.42;;;2.28;;
50605;SDS011;36557;53.572;10.170;2023-04-06T10:12:27;4.50;;;2.70;;
50605;SDS011;36557;53.572;10.170;2023-04-06T10:14:53;3.15;;;2.15;;
50605;SDS011;36557;53.572;10.170;2023-04-06T10:17:19;4.43;;;2.25;;
50605;SDS011;36557;53.572;10.170;2023-04-06T10:22:34;5.30;;;2.70;;
50605;SDS011;36557;53.572;10.170;2023-04-06T10:25:07;4.55;;;2.90;;
50605;SDS011;36557;53.572;10.170;2023-04-06T10:27:33;4.13;;;2.80;;
50605;SDS011;36557;53.572;10.170;2023-04-06T10:30:05;4.60;;;2.92;;
50605;SDS011;36557;53.572;10.170;2023-04-06T10:32:32;5.97;;;3.40;;
50605;SDS011;36557;53.572;10.170;2023-04-06T10:35:08;7.82;;;3.17;;
50605;SDS011;36557;53.572;10.170;2023-04-06T10:38:01;4.47;;;2.95;;
50605;SDS011;36557;53.572;10.170;2023-04-06T10:40:27;5.47;;;3.35;;
50605;SDS011;36557;53.572;10.170;2023-04-06T10:42:54;4.97;;;3.20;;
50605;SDS011;36557;53.572;10.170;2023-04-06T10:45:21;6.03;;;3.53;;
50605;SDS011;36557;53.572;10.170;2023-04-06T10:47:49;6.20;;;3.47;;
50605;SDS011;36557;53.572;10.170;2023-04-06T10:50:17;4.50;;;3.40;;
50605;SDS011;36557;53.572;10.170;2023-04-06T10:52:44;6.07;;;3.85;;
50605;SDS011;36557;53.572;10.170;2023-04-06T10:55:23;5.75;;;3.58;;
50605;SDS011;36557;53.572;10.170;2023-04-06T10:57:49;5.43;;;3.30;;
50605;SDS011;36557;53.572;10.170;2023-04-06T11:00:16;6.70;;;3.58;;
50605;SDS011;36557;53.572;10.170;2023-04-06T11:02:42;10.98;;;3.55;;
50605;SDS011;36557;53.572;10.170;2023-04-06T11:05:08;6.25;;;4.10;;
50605;SDS011;36557;53.572;10.170;2023-04-06T11:07:39;5.93;;;2.95;;
50605;SDS011;36557;53.572;10.170;2023-04-06T11:10:05;8.70;;;4.18;;
50605;SDS011;36557;53.572;10.170;2023-04-06T11:12:31;8.57;;;4.15;;
50605;SDS011;36557;53.572;10.170;2023-04-06T11:14:58;8.05;;;4.65;;
50605;SDS011;36557;53.572;10.170;2023-04-06T11:17:32;6.17;;;4.53;;
50605;SDS011;36557;53.572;10.170;2023-04-06T11:20:01;5.05;;;3.83;;
50605;SDS011;36557;53.572;10.170;2023-04-06T11:22:28;5.90;;;4.40;;
50605;SDS011;36557;53.572;10.170;2023-04-06T11:25:04;5.93;;;3.95;;
50605;SDS011;36557;53.572;10.170;2023-04-06T11:27:31;6.90;;;4.15;;
50605;SDS011;36557;53.572;10.170;2023-04-06T11:30:01;7.32;;;4.32;;
50605;SDS011;36557;53.572;10.170;2023-04-06T11:32:27;10.43;;;4.35;;
50605;SDS011;36557;53.572;10.170;2023-04-06T11:34:53;7.03;;;4.13;;
50605;SDS011;36557;53.572;10.170;2023-04-06T11:37:19;6.00;;;4.30;;
50605;SDS011;36557;53.572;10.170;2023-04-06T11:42:26;6.07;;;4.55;;
50605;SDS011;36557;53.572;10.170;2023-04-06T11:45:02;8.38;;;4.82;;
50605;SDS011;36557;53.572;10.170;2023-04-06T11:47:32;6.75;;;4.82;;
50605;SDS011;36557;53.572;10.170;2023-04-06T11:50:12;9.60;;;4.20;;
50605;SDS011;36557;53.572;10.170;2023-04-06T11:52:39;7.45;;;5.00;;
50605;SDS011;36557;53.572;10.170;2023-04-06T11:55:15;6.85;;;4.75;;
50605;SDS011;36557;53.572;10.170;2023-04-06T11:57:43;6.10;;;4.78;;
50605;SDS011;36557;53.572;10.170;2023-04-06T12:00:10;8.10;;;5.47;;
50605;SDS011;36557;53.572;10.170;2023-04-06T12:02:37;6.75;;;5.30;;
50605;SDS011;36557;53.572;10.170;2023-04-06T12:05:03;9.88;;;4.90;;
50605;SDS011;36557;53.572;10.170;2023-04-06T12:07:31;9.05;;;5.32;;
50605;SDS011;36557;53.572;10.170;2023-04-06T12:09:58;12.55;;;5.03;;
50605;SDS011;36557;53.572;10.170;2023-04-06T12:12:24;8.40;;;4.55;;
50605;SDS011;36557;53.572;10.170;2023-04-06T12:14:50;6.32;;;4.65;;
50605;SDS011;36557;53.572;10.170;2023-04-06T12:17:18;9.30;;;4.45;;
50605;SDS011;36557;53.572;10.170;2023-04-06T12:19:45;7.18;;;4.80;;
50605;SDS011;36557;53.572;10.170;2023-04-06T12:22:11;7.63;;;5.13;;
50605;SDS011;36557;53.572;10.170;2023-04-06T12:24:36;6.75;;;4.60;;
50605;SDS011;36557;53.572;10.170;2023-04-06T12:27:02;7.25;;;5.25;;
50605;SDS011;36557;53.572;10.170;2023-04-06T12:29:28;9.23;;;4.75;;
50605;SDS011;36557;53.572;10.170;2023-04-06T12:31:54;10.80;;;7.22;;
50605;SDS011;36557;53.572;10.170;2023-04-06T12:34:20;7.18;;;4.63;;
50605;SDS011;36557;53.572;10.170;2023-04-06T12:36:45;6.00;;;4.80;;
50605;SDS011;36557;53.572;10.170;2023-04-06T12:39:11;6.95;;;5.00;;
50605;SDS011;36557;53.572;10.170;2023-04-06T12:41:37;8.05;;;4.50;;
50605;SDS011;36557;53.572;10.170;2023-04-06T12:44:05;6.93;;;4.90;;
50605;SDS011;36557;53.572;10.170;2023-04-06T12:46:31;7.38;;;4.82;;
50605;SDS011;36557;53.572;10.170;2023-04-06T12:48:57;6.60;;;5.10;;
50605;SDS011;36557;53.572;10.170;2023-04-06T12:51:24;6.25;;;4.50;;
50605;SDS011;36557;53.572;10.170;2023-04-06T12:53:52;6.75;;;4.55;;
50605;SDS011;36557;53.572;10.170;2023-04-06T12:56:18;7.38;;;4.65;;
50605;SDS011;36557;53.572;10.170;2023-04-06T12:58:45;7.50;;;4.95;;
50605;SDS011;36557;53.572;10.170;2023-04-06T13:01:11;6.82;;;4.93;;
50605;SDS011;36557;53.572;10.170;2023-04-06T13:03:38;9.77;;;5.00;;
50605;SDS011;36557;53.572;10.170;2023-04-06T13:06:04;7.93;;;5.13;;
50605;SDS011;36557;53.572;10.170;2023-04-06T13:08:30;8.25;;;5.25;;
50605;SDS011;36557;53.572;10.170;2023-04-06T13:10:56;8.70;;;5.55;;
50605;SDS011;36557;53.572;10.170;2023-04-06T13:13:22;6.43;;;4.97;;
50605;SDS011;36557;53.572;10.170;2023-04-06T13:15:49;7.35;;;4.57;;
50605;SDS011;36557;53.572;10.170;2023-04-06T13:18:16;6.82;;;5.00;;
50605;SDS011;36557;53.572;10.170;2023-04-06T13:20:42;5.68;;;4.53;;
50605;SDS011;36557;53.572;10.170;2023-04-06T13:23:08;8.07;;;5.30;;
50605;SDS011;36557;53.572;10.170;2023-04-06T13:25:34;7.20;;;5.53;;
50605;SDS011;36557;53.572;10.170;2023-04-06T13:28:00;7.03;;;4.93;;
50605;SDS011;36557;53.572;10.170;2023-04-06T13:30:26;7.20;;;4.82;;
50605;SDS011;36557;53.572;10.170;2023-04-06T13:32:52;6.95;;;5.40;;
50605;SDS011;36557;53.572;10.170;2023-04-06T13:35:18;6.25;;;4.43;;
50605;SDS011;36557;53.572;10.170;2023-04-06T13:37:44;7.63;;;5.35;;
50605;SDS011;36557;53.572;10.170;2023-04-06T13:40:10;6.82;;;4.78;;
50605;SDS011;36557;53.572;10.170;2023-04-06T13:42:36;7.25;;;4.70;;
50605;SDS011;36557;53.572;10.170;2023-04-06T13:45:05;7.53;;;4.70;;
50605;SDS011;36557;53.572;10.170;2023-04-06T13:47:31;6.97;;;4.70;;
50605;SDS011;36557;53.572;10.170;2023-04-06T13:49:57;7.18;;;5.07;;
50605;SDS011;36557;53.572;10.170;2023-04-06T13:52:23;5.88;;;4.53;;
50605;SDS011;36557;53.572;10.170;2023-04-06T13:54:49;6.18;;;4.72;;
50605;SDS011;36557;53.572;10.170;2023-04-06T13:57:15;9.23;;;5.47;;
50605;SDS011;36557;53.572;10.170;2023-04-06T13:59:41;8.07;;;5.18;;
50605;SDS011;36557;53.572;10.170;2023-04-06T14:02:08;8.05;;;6.05;;
50605;SDS011;36557;53.572;10.170;2023-04-06T14:04:34;7.43;;;5.05;;
50605;SDS011;36557;53.572;10.170;2023-04-06T14:07:01;8.32;;;5.70;;
50605;SDS011;36557;53.572;10.170;2023-04-06T14:09:28;7.07;;;5.40;;
50605;SDS011;36557;53.572;10.170;2023-04-06T14:11:54;6.30;;;5.10;;
50605;SDS011;36557;53.572;10.170;2023-04-06T14:14:19;7.78;;;5.60;;
50605;SDS011;36557;53.572;10.170;2023-04-06T14:16:46;7.70;;;4.82;;
50605;SDS011;36557;53.572;10.170;2023-04-06T14:19:13;7.95;;;5.13;;
50605;SDS011;36557;53.572;10.170;2023-04-06T14:21:43;9.80;;;5.93;;
50605;SDS011;36557;53.572;10.170;2023-04-06T14:24:13;6.78;;;5.00;;
50605;SDS011;36557;53.572;10.170;2023-04-06T14:26:40;9.63;;;5.30;;
50605;SDS011;36557;53.572;10.170;2023-04-06T14:29:09;7.60;;;4.97;;
50605;SDS011;36557;53.572;10.170;2023-04-06T14:31:35;6.53;;;5.40;;
50605;SDS011;36557;53.572;10.170;2023-04-06T14:34:02;7.45;;;4.93;;
50605;SDS011;36557;53.572;10.170;2023-04-06T14:36:28;5.95;;;4.72;;
50605;SDS011;36557;53.572;10.170;2023-04-06T14:39:06;6.78;;;5.00;;
50605;SDS011;36557;53.572;10.170;2023-04-06T14:41:32;6.70;;;5.10;;
50605;SDS011;36557;53.572;10.170;2023-04-06T14:43:59;8.75;;;5.07;;